ADDS METAR Data INFO
IDs: Format: Raw Decoded Include TAF

Data at: 0252 UTC 21 Oct 2017

KNUQ 210156Z VRB03KT 10SM CLR 14/07 A3014 RMK AO2 SLP207 T01390072
KNUQ 210056Z 29007KT 10SM CLR 16/07 A3012 RMK AO2 SLP200 T01560072
KNUQ 202356Z 32010KT 10SM CLR 17/06 A3012 RMK AO2 SLP202 60000 T01670061 10183 20156 53003
KNUQ 202256Z 30008KT 10SM FEW047 17/06 A3011 RMK AO2 RAE26 SLP197 P0000 T01720056
KNUQ 202156Z 36014KT 10SM -RA FEW043 17/08 A3010 RMK AO2 RAB46 SLP196 P0000 T01670078
KNUQ 202056Z 34010KT 10SM SCT048 17/07 A3011 RMK AO2 SLP199 T01670072 50000
KNUQ 201956Z 36006KT 10SM FEW037 SCT046 BKN055 17/09 A3012 RMK AO2 SLP201 T01670089
KNUQ 201856Z 35008KT 9SM FEW038 16/08 A3012 RMK AO2 SLP203 T01610083
KNUQ 201756Z 27009KT 10SM SCT034 16/08 A3011 RMK AO2 SLP199 T01610083 10161 20111 51013
KNUQ 201656Z 00000KT 10SM FEW045 FEW060 14/11 A3010 RMK AO2 SLP196 T01390106
KNUQ 201556Z 00000KT 10SM FEW048 13/11 A3010 RMK AO2 SLP194 T01330111
KNUQ 201456Z 18004KT 10SM CLR 12/11 A3008 RMK AO2 SLP187 T01170106 53016
KNUQ 201356Z 17004KT 10SM CLR 12/11 A3006 RMK AO2 SLP180 T01170106
KNUQ 201256Z 00000KT 10SM CLR 12/11 A3004 RMK AO2 SLP174 T01220106
KNUQ 201156Z 00000KT 10SM CLR 12/10 A3003 RMK AO2 SLP171 60015 70015 T01220100 10178 20117 53017
KNUQ 201138Z 00000KT 10SM FEW022 SCT028 12/11 A3002 RMK AO2 T01220106
KNUQ 201124Z 00000KT 10SM SCT021 BKN028 12/11 A3002 RMK AO2 T01220111
KNUQ 201056Z 31003KT 10SM CLR 12/11 A3000 RMK AO2 SLP162 T01220111
KNUQ 200956Z 00000KT 10SM FEW060 BKN090 13/11 A2997 RMK AO2 RAE17 SLP152 P0000 T01280111
KNUQ 200856Z 29007KT 8SM -RA FEW038 OVC046 13/12 A2998 RMK AO2 SLP154 P0003 60015 T01280117 53029
KNUQ 200842Z 29007KT 6SM -RA BR FEW012 OVC035 13/12 A2998 RMK AO2 P0003 T01280117
KNUQ 200756Z 31007G19KT 7SM -RA OVC029 13/12 A2996 RMK AO2 PK WND 31026/0719 RAB04 SLP148 P0012 T01280117 402000117
KNUQ 200741Z 29012G22KT 7SM -RA FEW015 FEW022 OVC029 13/12 A2996 RMK AO2 PK WND 31026/0719 RAB04 P0011 T01330122
KNUQ 200734Z 31016G22KT 7SM -RA FEW022 BKN027 OVC033 13/12 A2995 RMK AO2 PK WND 31026/0719 RAB04 P0011 T01330122
KNUQ 200725Z 32013G26KT 2SM +RA BR BKN025 OVC030 13/12 A2994 RMK AO2 PK WND 31026/0719 RAB04 PRESRR P0010 T01330122
KNUQ 200656Z 17005KT 10SM SCT037 SCT045 OVC055 18/14 A2989 RMK AO2 RAE0557 SLP124 P0000 T01780139
KNUQ 200556Z VRB04KT 10SM -RA FEW030 SCT037 BKN055 17/14 A2989 RMK AO2 RAB0457E20B37 SLP125 P0000 60000 T01720144 10194 20172 58006
KNUQ 200538Z 14006KT 10SM -RA FEW028 BKN036 OVC055 17/14 A2990 RMK AO2 RAB0457E20B37 P0000 T01720139
KNUQ 200522Z 17003KT 10SM BKN028 BKN034 OVC065 18/14 A2991 RMK AO2 RAB0457E20 P0000 T01780139
KNUQ 200456Z VRB03KT 9SM SCT028 BKN037 OVC070 18/13 A2991 RMK AO2 SLP129 T01780133
KNUQ 200453Z 17003KT 10SM SCT028 BKN040 OVC070 18/13 A2991 RMK AO2
KNUQ 200406Z 17004KT 10SM BKN027 OVC034 18/13 A2991 RMK AO2 T01830128
KNUQ 200356Z 17004KT 10SM BKN032 OVC039 18/13 A2991 RMK AO2 RAE0259 SLP131 P0000 T01830128
KNUQ 200256Z AUTO 17003KT 10SM -RA SCT039 BKN050 OVC070 18/13 A2991 RMK AO2 RAB43 SLP130 P0000 60000 T01830128 56002
KNUQ 200156Z AUTO 25006KT 10SM FEW033 SCT048 OVC060 18/12 A2991 RMK AO2 SLP131 T01830122
KNUQ 200056Z AUTO VRB05KT 10SM OVC060 19/12 A2990 RMK AO2 SLP129 T01890122
KNUQ 192356Z AUTO 27011KT 10SM CLR 19/12 A2991 RMK AO2 SLP132 T01940117 10200 20156 56018
KNUQ 192256Z 35012KT 10SM SCT035 19/12 A2994 RMK AO2 SLP140 T01890122
KNUQ 192156Z 01010KT 10SM FEW034 20/12 A2994 RMK AO2 SLP142 T02000122
KNUQ 192056Z 03007KT 10SM BKN033 18/12 A2997 RMK AO2 SLP150 T01830117 58015
KNUQ 191956Z 02005KT 10SM FEW033 BKN070 18/11 A2999 RMK AO2 SLP158 T01830111
KNUQ 191856Z VRB03KT 10SM BKN032 OVC050 17/11 A3001 RMK AO2 SLP165 T01720111
KNUQ 191756Z VRB03KT 10SM BKN040 BKN070 16/11 A3001 RMK AO2 SLP166 T01610111 10172 20122 50001
KNUQ 191708Z 00000KT 10SM SCT017 BKN055 BKN070 15/11 A3001 RMK AO2 T01500106
KNUQ 191656Z 02003KT 10SM BKN017 OVC055 14/11 A3001 RMK AO2 SLP166 T01440106
KNUQ 191624Z 00000KT 10SM BKN016 BKN050 OVC075 14/11 A3002 RMK AO2 T01390106
KNUQ 191556Z 00000KT 10SM SCT014 BKN050 OVC075 14/11 A3001 RMK AO2 SLP164 T01390106
KNUQ 191552Z 00000KT 10SM SCT014 BKN050 BKN075 14/11 A3001 RMK AO2
KNUQ 191456Z 04003KT 10SM OVC012 13/11 A3000 RMK AO2 SLP163 T01280106 55003